Kisarazu Airport Kisarazu JP
ICAO: RJTK
IATA:
Category: Medium
Scheduled Services:

Elevation: 10 ft
TransAlt. 0 ft.

Airport Communications:
TOKYO APP:119.1
TWR:126.2

RJTK Zoom In..

If you have problems with the map follow the link
https://www.worldairports.se/pages/airport.php?
ICAO=RJTK

Runways:

Location; RJTK
Day. 13 / Time. 12.30 Zulu
* Altimeter: 30.08
* Temperature: 08° c. 46.4°f.
* Wind from: VRB° Speed 05 kn.
Dewpoint: 00° c.
Visibility: 7000 m.
Clouds: Few 1200 ft.
Clouds: Scattered 1500 ft.
Clouds: Broken 2500 ft.
Conditions: Light Rain Showers.

RJTK 131230Z VRB05KT 7000 -SHRA FEW012 SCT015 BKN025 08/00 Q1018 RMK 1CU012 3CU015 6CU025 A3008


Wind From VRB°
Speed 05 kn.

 
 
jpsmedia.com for Web Design worldairports.se 2018   terms of use